createdAt,value
2019-02-08T00:01:16.396Z,48.10
2019-02-08T00:03:43.549Z,44.97
2019-02-08T00:06:10.278Z,45.40
2019-02-08T00:08:37.016Z,46.57
2019-02-08T00:11:03.775Z,41.20
2019-02-08T00:13:30.495Z,44.33
2019-02-08T00:15:57.344Z,46.77
2019-02-08T00:18:24.187Z,46.43
2019-02-08T00:20:51.031Z,48.23
2019-02-08T00:23:26.350Z,42.87
2019-02-08T00:25:46.448Z,45.40
2019-02-08T00:28:13.253Z,39.63
2019-02-08T00:30:40.039Z,45.33
2019-02-08T00:33:06.883Z,40.97
2019-02-08T00:35:33.610Z,44.73
2019-02-08T00:38:00.304Z,45.57
2019-02-08T00:40:27.191Z,43.47
2019-02-08T00:42:55.677Z,42.00
2019-02-08T00:45:22.524Z,42.50
2019-02-08T00:47:49.371Z,45.57
2019-02-08T00:50:16.102Z,43.00
2019-02-08T00:52:42.945Z,45.60
2019-02-08T00:55:09.671Z,42.13
2019-02-08T00:57:36.421Z,43.20
2019-02-08T01:00:03.149Z,41.17
2019-02-08T01:02:30.199Z,48.07
2019-02-08T01:04:57.038Z,40.37
2019-02-08T01:07:23.677Z,39.60
2019-02-08T01:09:50.425Z,47.47
2019-02-08T01:12:17.357Z,45.70
2019-02-08T01:14:44.107Z,48.47
2019-02-08T01:17:10.943Z,44.70
2019-02-08T01:19:37.680Z,48.43
2019-02-08T01:22:04.529Z,51.87
2019-02-08T01:24:31.581Z,44.03
2019-02-08T01:26:58.318Z,53.80
2019-02-08T01:29:25.158Z,48.27
2019-02-08T01:31:51.890Z,47.73
2019-02-08T01:34:18.637Z,42.77
2019-02-08T01:36:45.367Z,50.33
2019-02-08T01:39:12.115Z,46.73
2019-02-08T01:41:39.164Z,48.13
2019-02-08T01:44:06.031Z,54.83
2019-02-08T01:46:32.846Z,45.77
2019-02-08T01:48:59.609Z,43.77
2019-02-08T01:51:26.314Z,49.53
2019-02-08T01:53:53.157Z,53.07
2019-02-08T01:56:20.010Z,46.73
2019-02-08T01:58:46.736Z,51.90
2019-02-08T02:01:13.507Z,48.20
2019-02-08T02:03:40.218Z,49.80
2019-02-08T02:06:07.066Z,51.90
2019-02-08T02:08:33.796Z,46.50
2019-02-08T02:11:00.537Z,45.53
2019-02-08T02:13:27.286Z,46.27
2019-02-08T02:15:54.012Z,40.77
2019-02-08T02:18:21.173Z,46.90
2019-02-08T02:20:47.918Z,46.53
2019-02-08T02:23:14.641Z,45.90
2019-02-08T02:25:41.395Z,50.30
2019-02-08T02:28:08.141Z,53.43
2019-02-08T02:30:34.961Z,41.57
2019-02-08T02:33:01.711Z,50.50
2019-02-08T02:35:28.457Z,45.17
2019-02-08T02:37:55.311Z,46.73
2019-02-08T02:40:22.135Z,50.80
2019-02-08T02:42:48.976Z,47.63
2019-02-08T02:45:15.705Z,46.63
2019-02-08T02:47:42.456Z,54.27
2019-02-08T02:50:09.296Z,41.53
2019-02-08T02:52:36.358Z,44.20
2019-02-08T02:55:03.479Z,51.27
2019-02-08T02:57:30.331Z,48.57
2019-02-08T02:59:57.063Z,51.20
2019-02-08T03:02:23.801Z,48.27
2019-02-08T03:04:50.442Z,50.33
2019-02-08T03:07:17.285Z,51.37
2019-02-08T03:09:44.024Z,47.53
2019-02-08T03:12:10.763Z,51.17
2019-02-08T03:14:37.506Z,51.90
2019-02-08T03:17:04.239Z,47.67
2019-02-08T03:19:31.099Z,51.53
2019-02-08T03:21:57.783Z,48.47
2019-02-08T03:24:24.458Z,50.03
2019-02-08T03:26:51.194Z,50.57
2019-02-08T03:29:17.933Z,46.73
2019-02-08T03:31:44.699Z,42.67
2019-02-08T03:34:11.721Z,51.50
2019-02-08T03:36:38.464Z,41.67
2019-02-08T03:39:05.205Z,48.13
2019-02-08T03:41:31.938Z,44.07
2019-02-08T03:43:58.779Z,43.67
2019-02-08T03:46:25.529Z,42.73
2019-02-08T03:48:52.258Z,47.23
2019-02-08T03:51:18.997Z,46.43
2019-02-08T03:53:45.856Z,43.70
2019-02-08T03:56:12.680Z,42.83
2019-02-08T03:58:39.424Z,39.50
2019-02-08T04:01:06.159Z,45.67
2019-02-08T04:03:32.904Z,43.50
2019-02-08T04:05:59.636Z,48.30
2019-02-08T04:08:26.380Z,46.93
2019-02-08T04:10:53.128Z,47.50
2019-02-08T04:13:19.974Z,44.97
2019-02-08T04:15:46.810Z,51.73
2019-02-08T04:18:13.552Z,50.27
2019-02-08T04:20:40.381Z,50.70
2019-02-08T04:23:07.267Z,45.83
2019-02-08T04:25:34.074Z,49.03
2019-02-08T04:28:00.800Z,51.10
2019-02-08T04:30:27.543Z,49.63
2019-02-08T04:32:54.411Z,53.97
2019-02-08T04:35:21.152Z,44.00
2019-02-08T04:37:47.868Z,42.93
2019-02-08T04:40:14.613Z,51.20
2019-02-08T04:42:41.345Z,51.70
2019-02-08T04:45:08.183Z,51.93
2019-02-08T04:47:34.822Z,51.27
2019-02-08T04:50:01.565Z,55.77
2019-02-08T04:52:28.309Z,49.97
2019-02-08T04:54:55.003Z,45.87
2019-02-08T04:57:21.773Z,46.63
2019-02-08T04:59:48.519Z,48.43
2019-02-08T05:02:15.282Z,52.27
2019-02-08T05:04:42.096Z,48.13
2019-02-08T05:07:08.852Z,48.63
2019-02-08T05:09:35.688Z,48.87
2019-02-08T05:12:02.523Z,50.10
2019-02-08T05:14:29.272Z,45.17
2019-02-08T05:16:56.099Z,49.90
2019-02-08T05:19:22.848Z,48.13
2019-02-08T05:21:49.972Z,48.40
2019-02-08T05:24:16.731Z,44.40
2019-02-08T05:26:43.466Z,49.87
2019-02-08T05:29:10.260Z,49.13
2019-02-08T05:31:37.152Z,47.90
2019-02-08T05:34:04.000Z,45.73
2019-02-08T05:36:30.730Z,45.20
2019-02-08T05:38:57.481Z,43.03
2019-02-08T05:41:24.310Z,46.27
2019-02-08T05:43:51.062Z,44.93
2019-02-08T05:46:17.902Z,48.70
2019-02-08T05:48:44.744Z,51.70
2019-02-08T05:51:11.483Z,47.90
2019-02-08T05:53:38.217Z,44.97
2019-02-08T05:56:04.954Z,47.23
2019-02-08T05:58:31.812Z,40.30
2019-02-08T06:00:58.501Z,45.17
2019-02-08T06:03:25.279Z,51.67
2019-02-08T06:05:52.012Z,51.33
2019-02-08T06:08:18.750Z,50.67
2019-02-08T06:10:45.489Z,53.60
2019-02-08T06:13:12.228Z,48.27
2019-02-08T06:15:38.975Z,54.70
2019-02-08T06:18:05.819Z,46.80
2019-02-08T06:20:32.559Z,49.67
2019-02-08T06:22:59.496Z,49.40
2019-02-08T06:25:26.236Z,45.20
2019-02-08T06:27:52.982Z,48.50
2019-02-08T06:30:19.724Z,46.67
2019-02-08T06:32:46.452Z,46.70
2019-02-08T06:35:13.301Z,46.53
2019-02-08T06:37:44.294Z,41.53
2019-02-08T06:40:08.411Z,49.13
2019-02-08T06:42:35.149Z,49.77
2019-02-08T06:45:01.896Z,43.13
2019-02-08T06:47:28.740Z,43.90
2019-02-08T06:49:55.478Z,42.93
2019-02-08T06:52:22.207Z,40.03
2019-02-08T06:54:49.046Z,38.30
2019-02-08T06:57:15.797Z,38.57
2019-02-08T06:59:42.630Z,41.10
2019-02-08T07:02:09.369Z,33.63
2019-02-08T07:04:36.117Z,41.80
2019-02-08T07:07:02.845Z,31.43
2019-02-08T07:09:29.482Z,37.77
2019-02-08T07:11:56.232Z,35.97
2019-02-08T07:14:22.972Z,35.93
2019-02-08T07:16:49.705Z,34.67
2019-02-08T07:19:16.449Z,37.07
2019-02-08T07:21:43.295Z,35.23
2019-02-08T07:24:10.125Z,35.40
2019-02-08T07:26:36.873Z,35.90
2019-02-08T07:29:03.614Z,31.97
2019-02-08T07:31:30.355Z,36.43
2019-02-08T07:33:57.196Z,37.00
2019-02-08T07:36:24.041Z,37.77
2019-02-08T07:38:50.882Z,37.10
2019-02-08T07:41:17.607Z,39.97
2019-02-08T07:43:44.365Z,37.40
2019-02-08T07:46:11.090Z,40.43
2019-02-08T07:48:37.836Z,39.07
2019-02-08T07:51:04.562Z,41.90
2019-02-08T07:53:31.203Z,40.30
2019-02-08T07:55:57.949Z,41.00
2019-02-08T07:58:24.681Z,38.90
2019-02-08T08:00:51.431Z,38.40
2019-02-08T08:03:18.157Z,39.67
2019-02-08T08:05:44.907Z,32.27
2019-02-08T08:08:11.751Z,33.57
2019-02-08T08:10:38.485Z,35.33
2019-02-08T08:13:05.330Z,34.03
2019-02-08T08:15:32.078Z,29.27
2019-02-08T08:17:58.805Z,33.00
2019-02-08T08:20:25.538Z,32.57
2019-02-08T08:22:52.288Z,27.83
2019-02-08T08:25:19.439Z,28.27
2019-02-08T08:27:46.165Z,30.80
2019-02-08T08:30:12.920Z,29.93
2019-02-08T08:32:39.646Z,30.17
2019-02-08T08:35:06.383Z,31.63
2019-02-08T08:37:33.233Z,28.93
2019-02-08T08:39:59.965Z,29.97
2019-02-08T08:42:26.617Z,28.87
2019-02-08T08:44:53.341Z,27.43
2019-02-08T08:47:19.986Z,27.37
2019-02-08T08:49:46.827Z,27.37
2019-02-08T08:52:13.555Z,26.23
2019-02-08T08:54:40.315Z,29.33
2019-02-08T08:57:07.034Z,27.77
2019-02-08T08:59:33.981Z,28.97
2019-02-08T09:02:00.827Z,28.27
2019-02-08T09:04:27.565Z,25.90
2019-02-08T09:06:54.303Z,28.27
2019-02-08T09:09:21.058Z,28.23
2019-02-08T09:11:47.893Z,27.30
2019-02-08T09:14:14.724Z,28.47
2019-02-08T09:16:41.479Z,28.17
2019-02-08T09:19:08.205Z,27.90
2019-02-08T09:21:34.942Z,29.83
2019-02-08T09:24:01.693Z,29.83
2019-02-08T09:26:28.541Z,31.57
2019-02-08T09:28:55.267Z,32.23
2019-02-08T09:31:22.035Z,31.20
2019-02-08T09:33:48.849Z,31.83
2019-02-08T09:36:15.586Z,32.07
2019-02-08T09:38:42.441Z,33.97
2019-02-08T09:41:09.153Z,35.87
2019-02-08T09:43:35.912Z,30.13
2019-02-08T09:46:02.643Z,32.97
2019-02-08T09:48:29.391Z,32.27
2019-02-08T09:50:56.239Z,31.97
2019-02-08T09:53:22.962Z,31.17
2019-02-08T09:55:57.443Z,34.47
2019-02-08T09:58:18.283Z,31.03
2019-02-08T10:00:45.035Z,27.97
2019-02-08T10:03:11.830Z,32.93
2019-02-08T10:05:38.660Z,31.97
2019-02-08T10:08:05.361Z,29.60
2019-02-08T10:10:32.099Z,30.63
2019-02-08T10:12:58.959Z,34.63
2019-02-08T10:15:25.768Z,30.97
2019-02-08T10:17:52.626Z,28.83
2019-02-08T10:20:19.344Z,28.07
2019-02-08T10:22:46.103Z,28.03
2019-02-08T10:25:12.837Z,31.27
2019-02-08T10:27:39.989Z,28.93
2019-02-08T10:30:06.839Z,27.13
2019-02-08T10:32:33.567Z,28.43
2019-02-08T10:35:00.406Z,21.93
2019-02-08T10:37:27.627Z,26.93
2019-02-08T10:39:54.389Z,24.60
2019-02-08T10:42:21.137Z,23.90
2019-02-08T10:44:48.001Z,23.70
2019-02-08T10:47:14.821Z,22.57
2019-02-08T10:49:41.664Z,21.27
2019-02-08T10:52:08.494Z,25.27
2019-02-08T10:54:35.351Z,23.97
2019-02-08T10:57:02.078Z,25.50
2019-02-08T10:59:28.818Z,22.63
2019-02-08T11:01:55.555Z,22.83
2019-02-08T11:04:22.395Z,25.43
2019-02-08T11:06:49.107Z,24.00
2019-02-08T11:09:15.880Z,24.70
2019-02-08T11:11:42.620Z,25.90
2019-02-08T11:14:09.363Z,27.27
2019-02-08T11:16:36.208Z,26.20
2019-02-08T11:19:02.935Z,25.87
2019-02-08T11:21:29.685Z,25.80
2019-02-08T11:23:56.515Z,23.77
2019-02-08T11:26:24.598Z,25.40
2019-02-08T11:28:51.735Z,25.30
2019-02-08T11:31:18.596Z,23.50
2019-02-08T11:33:45.428Z,24.43
2019-02-08T11:36:12.269Z,27.10
2019-02-08T11:38:39.114Z,26.50
2019-02-08T11:41:05.953Z,25.83
2019-02-08T11:43:32.692Z,28.27
2019-02-08T11:45:59.425Z,25.37
2019-02-08T11:48:26.180Z,25.50
2019-02-08T11:50:53.018Z,25.33
2019-02-08T11:53:19.856Z,24.77
2019-02-08T11:55:46.695Z,23.63
2019-02-08T11:58:13.425Z,27.33
2019-02-08T12:00:40.165Z,25.40
2019-02-08T12:03:06.915Z,24.87
2019-02-08T12:05:35.001Z,24.67
2019-02-08T12:08:01.831Z,22.47
2019-02-08T12:10:28.664Z,19.50
2019-02-08T12:12:55.868Z,22.23
2019-02-08T12:15:23.071Z,23.47
2019-02-08T12:17:49.910Z,20.10
2019-02-08T12:20:16.647Z,23.83
2019-02-08T12:22:43.487Z,21.67
2019-02-08T12:25:10.334Z,22.80
2019-02-08T12:27:37.576Z,20.47
2019-02-08T12:30:04.638Z,19.23
2019-02-08T12:32:31.358Z,20.70
2019-02-08T12:34:58.156Z,20.20
2019-02-08T12:37:25.060Z,20.70
2019-02-08T12:39:52.099Z,20.57
2019-02-08T12:42:19.234Z,22.33
2019-02-08T12:44:46.093Z,23.67
2019-02-08T12:47:13.443Z,20.07
2019-02-08T12:49:40.278Z,18.77
2019-02-08T12:52:07.027Z,19.33
2019-02-08T12:54:34.132Z,20.47
2019-02-08T12:57:00.906Z,20.13
2019-02-08T12:59:28.199Z,20.37
2019-02-08T13:01:54.903Z,16.93
2019-02-08T13:04:21.631Z,18.93
2019-02-08T13:06:48.514Z,15.67
2019-02-08T13:09:15.323Z,17.17
2019-02-08T13:11:42.052Z,16.70
2019-02-08T13:14:08.800Z,19.03
2019-02-08T13:16:35.942Z,18.40
2019-02-08T13:19:02.680Z,16.80
2019-02-08T13:21:29.417Z,15.40
2019-02-08T13:23:56.168Z,14.53
2019-02-08T13:26:23.279Z,14.97
2019-02-08T13:28:50.114Z,13.67
2019-02-08T13:31:18.164Z,15.93
2019-02-08T13:33:45.451Z,15.93
2019-02-08T13:36:12.375Z,14.27
2019-02-08T13:38:39.086Z,15.13
2019-02-08T13:41:05.902Z,14.27
2019-02-08T13:43:32.774Z,17.47
2019-02-08T13:45:59.791Z,15.70
2019-02-08T13:48:26.530Z,15.30
2019-02-08T13:50:53.274Z,15.93
2019-02-08T13:53:19.998Z,14.90
2019-02-08T13:55:46.742Z,13.07
2019-02-08T13:58:13.487Z,14.95
2019-02-08T14:00:40.231Z,13.53
2019-02-08T14:03:06.993Z,12.68
2019-02-08T14:05:33.797Z,11.68
2019-02-08T14:08:00.538Z,14.20
2019-02-08T14:10:27.275Z,14.25
2019-02-08T14:12:54.020Z,14.07
2019-02-08T14:15:21.219Z,16.20
2019-02-08T14:17:48.008Z,15.88
2019-02-08T14:20:14.856Z,16.82
2019-02-08T14:22:41.586Z,15.98
2019-02-08T14:25:08.336Z,16.20
2019-02-08T14:27:35.335Z,14.18
2019-02-08T14:30:02.110Z,16.95
2019-02-08T14:32:28.860Z,15.78
2019-02-08T14:34:55.614Z,16.42
2019-02-08T14:37:22.344Z,16.97
2019-02-08T14:39:49.274Z,17.30
2019-02-08T14:42:16.021Z,20.75
2019-02-08T14:44:43.280Z,18.65
2019-02-08T14:47:10.002Z,21.07
2019-02-08T14:49:36.961Z,16.73
2019-02-08T14:52:03.693Z,17.90
2019-02-08T14:54:30.436Z,19.43
2019-02-08T14:56:57.269Z,18.17
2019-02-08T14:59:24.016Z,15.43
2019-02-08T15:01:50.748Z,16.53
2019-02-08T15:04:17.489Z,19.10
2019-02-08T15:06:44.236Z,16.47
2019-02-08T15:09:11.032Z,16.43
2019-02-08T15:11:37.806Z,18.97
2019-02-08T15:14:04.443Z,19.80
2019-02-08T15:16:31.184Z,20.33
2019-02-08T15:18:57.951Z,20.03
2019-02-08T15:21:24.902Z,15.57
2019-02-08T15:23:51.604Z,16.20
2019-02-08T15:26:18.249Z,18.40
2019-02-08T15:28:44.981Z,15.60
2019-02-08T15:31:11.731Z,20.47
2019-02-08T15:33:38.662Z,16.27
2019-02-08T15:36:05.413Z,19.30
2019-02-08T15:38:32.153Z,17.87
2019-02-08T15:40:59.088Z,15.73
2019-02-08T15:43:25.834Z,17.27
2019-02-08T15:45:52.678Z,19.90
2019-02-08T15:48:19.615Z,15.27
2019-02-08T15:50:46.460Z,14.83
2019-02-08T15:53:13.304Z,14.83
2019-02-08T15:55:40.037Z,18.03
2019-02-08T15:58:06.887Z,17.47
2019-02-08T16:00:33.615Z,15.17
2019-02-08T16:03:00.353Z,16.20
2019-02-08T16:05:27.107Z,16.10
2019-02-08T16:07:53.851Z,14.67
2019-02-08T16:10:20.675Z,14.43
2019-02-08T16:12:47.653Z,15.80
2019-02-08T16:15:14.563Z,19.43
2019-02-08T16:17:41.198Z,16.97
2019-02-08T16:20:07.951Z,15.67
2019-02-08T16:22:34.778Z,16.97
2019-02-08T16:25:01.528Z,17.07
2019-02-08T16:27:28.471Z,15.00
2019-02-08T16:29:55.203Z,17.00
2019-02-08T16:32:21.942Z,14.67
2019-02-08T16:34:48.700Z,15.63
2019-02-08T16:37:15.534Z,14.37
2019-02-08T16:39:42.376Z,15.37
2019-02-08T16:42:09.213Z,25.33
2019-02-08T16:44:35.949Z,19.40
2019-02-08T16:47:02.795Z,33.07
2019-02-08T16:49:29.556Z,16.43
2019-02-08T16:51:56.275Z,16.07
2019-02-08T16:54:23.013Z,17.53
2019-02-08T16:56:49.744Z,17.87
2019-02-08T16:59:16.486Z,17.00
2019-02-08T17:01:43.232Z,20.97
2019-02-08T17:04:09.961Z,21.13
2019-02-08T17:06:36.711Z,21.27
2019-02-08T17:09:03.453Z,25.63
2019-02-08T17:11:30.488Z,23.03
2019-02-08T17:13:57.238Z,22.40
2019-02-08T17:16:23.964Z,25.40
2019-02-08T17:18:50.723Z,20.40
2019-02-08T17:21:17.454Z,21.33
2019-02-08T17:23:44.294Z,26.07
2019-02-08T17:26:11.035Z,23.70
2019-02-08T17:28:37.977Z,24.70
2019-02-08T17:31:04.708Z,26.90
2019-02-08T17:33:31.460Z,25.17
2019-02-08T17:35:58.298Z,21.87
2019-02-08T17:38:25.037Z,21.53
2019-02-08T17:40:51.810Z,21.87
2019-02-08T17:43:18.710Z,26.23
2019-02-08T17:45:45.489Z,25.80
2019-02-08T17:48:12.300Z,20.03
2019-02-08T17:50:39.033Z,22.03
2019-02-08T17:53:05.780Z,23.97
2019-02-08T17:55:32.622Z,19.87
2019-02-08T17:58:03.758Z,23.73
2019-02-08T18:00:27.777Z,19.60
2019-02-08T18:02:54.593Z,24.33
2019-02-08T18:05:21.319Z,21.27
2019-02-08T18:07:48.160Z,24.47
2019-02-08T18:10:14.856Z,24.30
2019-02-08T18:12:41.746Z,27.10
2019-02-08T18:15:08.503Z,28.70
2019-02-08T18:17:35.212Z,25.77
2019-02-08T18:20:01.973Z,24.10
2019-02-08T18:22:28.792Z,23.63
2019-02-08T18:24:57.174Z,21.77
2019-02-08T18:27:23.909Z,24.90
2019-02-08T18:29:50.661Z,24.20
2019-02-08T18:32:17.397Z,28.10
2019-02-08T18:34:44.137Z,29.60
2019-02-08T18:37:11.206Z,32.40
2019-02-08T18:39:38.025Z,35.23
2019-02-08T18:42:04.763Z,33.73
2019-02-08T18:44:31.605Z,35.83
2019-02-08T18:46:58.496Z,36.03
2019-02-08T18:49:25.288Z,39.73
2019-02-08T18:51:52.032Z,35.10
2019-02-08T18:54:18.766Z,39.57
2019-02-08T18:56:45.467Z,44.00
2019-02-08T18:59:12.134Z,44.07
2019-02-08T19:01:38.837Z,48.43
2019-02-08T19:04:05.622Z,44.97
2019-02-08T19:06:32.350Z,42.33
2019-02-08T19:08:59.088Z,43.67
2019-02-08T19:11:25.837Z,45.40
2019-02-08T19:13:52.681Z,43.73
2019-02-08T19:16:19.410Z,41.93
2019-02-08T19:18:46.158Z,43.20
2019-02-08T19:21:12.901Z,44.43
2019-02-08T19:23:39.740Z,47.47
2019-02-08T19:26:06.575Z,45.57
2019-02-08T19:28:33.206Z,39.87
2019-02-08T19:30:59.956Z,43.37
2019-02-08T19:33:26.797Z,43.90
2019-02-08T19:35:53.537Z,46.10
2019-02-08T19:38:20.583Z,46.13
2019-02-08T19:40:47.315Z,48.53
2019-02-08T19:43:14.075Z,50.17
2019-02-08T19:45:40.898Z,45.87
2019-02-08T19:48:07.635Z,44.40
2019-02-08T19:50:34.375Z,44.33
2019-02-08T19:53:01.121Z,49.50
2019-02-08T19:55:27.855Z,47.40
2019-02-08T19:57:54.599Z,48.50
2019-02-08T20:00:21.443Z,43.67
2019-02-08T20:02:48.275Z,40.67
2019-02-08T20:05:15.027Z,45.73
2019-02-08T20:07:41.726Z,48.40
2019-02-08T20:10:08.504Z,51.10
2019-02-08T20:12:35.236Z,46.20
2019-02-08T20:15:02.089Z,42.90
2019-02-08T20:17:28.823Z,45.20
2019-02-08T20:19:55.561Z,52.37
2019-02-08T20:22:22.404Z,45.43
2019-02-08T20:24:49.141Z,50.73
2019-02-08T20:27:15.978Z,48.50
2019-02-08T20:29:42.723Z,52.83
2019-02-08T20:32:09.464Z,51.70
2019-02-08T20:34:36.190Z,51.67
2019-02-08T20:37:02.943Z,48.40
2019-02-08T20:39:29.788Z,55.07
2019-02-08T20:41:56.556Z,47.73
2019-02-08T20:44:23.470Z,51.13
2019-02-08T20:46:50.201Z,49.93
2019-02-08T20:49:17.047Z,59.33
2019-02-08T20:51:43.943Z,50.37
2019-02-08T20:54:10.733Z,48.50
2019-02-08T20:56:37.472Z,48.07
2019-02-08T20:59:04.311Z,48.13
2019-02-08T21:01:31.151Z,53.30
2019-02-08T21:03:58.086Z,49.87
2019-02-08T21:06:24.826Z,50.60
2019-02-08T21:08:51.477Z,45.97
2019-02-08T21:11:18.322Z,50.90
2019-02-08T21:13:45.250Z,47.10
2019-02-08T21:16:12.090Z,45.53
2019-02-08T21:18:38.832Z,49.27
2019-02-08T21:21:05.784Z,47.10
2019-02-08T21:26:21.476Z,48.33
2019-02-08T21:28:48.222Z,49.23
2019-02-08T21:31:14.976Z,45.07
2019-02-08T21:33:41.688Z,52.23
2019-02-08T21:36:08.442Z,48.17
2019-02-08T21:38:35.283Z,49.37
2019-02-08T21:41:02.628Z,55.47
2019-02-08T21:43:29.371Z,53.27
2019-02-08T21:45:56.113Z,53.07
2019-02-08T21:48:22.840Z,50.20
2019-02-08T21:50:49.599Z,51.27
2019-02-08T21:53:16.435Z,54.60
2019-02-08T21:55:43.165Z,48.00
2019-02-08T21:58:09.919Z,57.67
2019-02-08T22:00:36.651Z,56.37
2019-02-08T22:03:03.391Z,55.13
2019-02-08T22:05:30.227Z,51.33
2019-02-08T22:07:56.961Z,60.43
2019-02-08T22:10:23.819Z,61.47
2019-02-08T22:12:50.655Z,61.33
2019-02-08T22:15:17.421Z,65.07
2019-02-08T22:17:44.438Z,65.07
2019-02-08T22:20:11.143Z,52.93
2019-02-08T22:22:37.911Z,52.60
2019-02-08T22:25:04.652Z,56.77
2019-02-08T22:27:31.519Z,55.87
2019-02-08T22:29:58.347Z,60.83
2019-02-08T22:32:25.046Z,64.07
2019-02-08T22:34:51.826Z,56.23
2019-02-08T22:37:18.885Z,58.83
2019-02-08T22:39:45.808Z,59.47
2019-02-08T22:42:12.982Z,54.03
2019-02-08T22:44:39.800Z,52.07
2019-02-08T22:47:06.544Z,64.87
2019-02-08T22:49:33.382Z,61.37
2019-02-08T22:52:00.110Z,60.17
2019-02-08T22:54:26.875Z,56.63
2019-02-08T22:56:53.795Z,54.53
2019-02-08T22:59:22.197Z,42.57
2019-02-08T23:01:49.024Z,55.00
2019-02-08T23:04:15.867Z,54.40
2019-02-08T23:06:44.863Z,52.33
2019-02-08T23:09:11.075Z,58.73
2019-02-08T23:11:37.713Z,58.13
2019-02-08T23:14:04.462Z,59.43
2019-02-08T23:16:31.192Z,54.80
2019-02-08T23:18:57.946Z,57.33
2019-02-08T23:21:24.783Z,55.40
2019-02-08T23:23:51.630Z,64.23
2019-02-08T23:26:18.364Z,53.23
2019-02-08T23:28:45.095Z,52.07
2019-02-08T23:31:11.845Z,55.30
2019-02-08T23:33:38.575Z,63.90
2019-02-08T23:36:05.311Z,57.60
2019-02-08T23:38:32.058Z,61.33
2019-02-08T23:40:58.788Z,45.10
2019-02-08T23:43:25.530Z,53.17
2019-02-08T23:45:52.282Z,51.70
2019-02-08T23:48:19.118Z,54.77
2019-02-08T23:50:45.817Z,60.27
2019-02-08T23:53:12.490Z,59.67
2019-02-08T23:55:39.336Z,58.87
2019-02-08T23:58:06.177Z,58.87
